Ocean Navigator — WSC2552 — position and weather

sailwx.info

Track history (hours):
 
Tides and Currents Weather Stations Pressure Air Temp Water Temp Dewpoint Dewpoint Depression Visibility Wind Speed Wind Dir Waves Ship Positions

Ocean Navigator

Owner: OCEAN NAVIGATOR INC, SEATTLE, WA. More information available from US FCC via Universal Licensing System and Coast Guard Vessel Documentation Center.

Last reported at 2017-Jul-21 00:30 UTC. Time now 2017-Jul-21 00:55 UTC.
Position N 49°42' W 124°33'.

Type: Towing. MMSI: 366358000.

Date/timePositionNaut miles runAvg speedWind from/ knotsBaromVisibWave heightAir tempDewpointWater temp
2017-Jul-21 00:30N 49°42' W 124°33'1 0.4
2017-Jul-20 22:25N 49°42' W 124°34'1 1.5
2017-Jul-20 21:59N 49°41' W 124°35'2 4.3
2017-Jul-20 21:30N 49°41' W 124°38'2 3.2
2017-Jul-20 21:00N 49°43' W 124°39'3 4.7
2017-Jul-20 20:28N 49°42' W 124°36'3 5.4
2017-Jul-20 19:59N 49°40' W 124°33'3 4.7
2017-Jul-20 19:16N 49°38' W 124°29'2 4.4
2017-Jul-20 18:50N 49°36' W 124°27'35 6.7
2017-Jul-20 13:41N 49°22' W 123°38'2 7.9
2017-Jul-20 13:28N 49°22' W 123°35'4 8.5
2017-Jul-20 13:00N 49°20' W 123°30'4 9.1
2017-Jul-20 12:30N 49°19' W 123°23'5 9.6
2017-Jul-20 12:00N 49°19' W 123°15'5 9.7
2017-Jul-20 11:30N 49°19' W 123°08'1 2.2
2017-Jul-20 11:01N 49°18' W 123°06'2 3.3
2017-Jul-20 10:30N 49°19' W 123°09'3 6.5
2017-Jul-20 10:00N 49°19' W 123°14'4 7.3
2017-Jul-20 09:30N 49°16' W 123°18'5 9.1
2017-Jul-20 09:00N 49°12' W 123°19'6 9.6
2017-Jul-20 08:24N 49°06' W 123°20'1010.1
2017-Jul-20 07:21N 48°58' W 123°10'410.1
2017-Jul-20 07:00N 48°56' W 123°06'1510.0
2017-Jul-20 05:31N 48°46' W 122°49'0 9.9
2017-Jul-20 05:29N 48°46' W 122°48'4 9.1
2017-Jul-20 05:00N 48°43' W 122°44'4 8.4
2017-Jul-20 04:30N 48°39' W 122°43'4 8.3
2017-Jul-20 04:00N 48°35' W 122°45'4 8.8
2017-Jul-20 03:30N 48°30' W 122°44'4 8.5
2017-Jul-20 03:00N 48°26' W 122°44'5 9.0
2017-Jul-20 02:28N 48°21' W 122°45'4 8.7
2017-Jul-20 01:57N 48°17' W 122°47'4 8.5
2017-Jul-20 01:29N 48°13' W 122°48'910.3
2017-Jul-20 00:40N 48°07' W 122°39'8 9.7
2017-Jul-19 23:51N 47°60' W 122°35'3 9.9
2017-Jul-19 23:30N 47°57' W 122°32'5 9.3
2017-Jul-19 23:00N 47°53' W 122°28'5 9.3
2017-Jul-19 22:30N 47°49' W 122°26'4 8.8
2017-Jul-19 22:00N 47°44' W 122°26'4 8.9
2017-Jul-19 21:30N 47°40' W 122°27'4 8.8
2017-Jul-19 21:00N 47°36' W 122°23'1 2.3
2017-Jul-19 20:30N 47°35' W 122°22'1 1.3
2017-Jul-19 20:00N 47°36' W 122°23'3 5.4
2017-Jul-19 19:31N 47°38' W 122°26'3 6.6
2017-Jul-19 19:00N 47°40' W 122°28'4 7.6
2017-Jul-19 18:30N 47°44' W 122°27'4 7.7
2017-Jul-19 18:00N 47°48' W 122°27'4 7.3
2017-Jul-19 17:30N 47°51' W 122°29'4 7.2
2017-Jul-19 17:00N 47°55' W 122°30'5 7.1
2017-Jul-19 16:18N 47°58' W 122°36'19 5.0
2017-Jul-19 12:33N 48°15' W 122°48'3 7.9
2017-Jul-19 12:08N 48°18' W 122°47'1 8.0
2017-Jul-19 11:58N 48°20' W 122°47'5 8.4
2017-Jul-19 11:23N 48°24' W 122°45'4 9.4
2017-Jul-19 11:00N 48°28' W 122°45'510.0
2017-Jul-19 10:30N 48°33' W 122°45'4 8.7
2017-Jul-19 10:00N 48°37' W 122°45'4 7.8
2017-Jul-19 09:30N 48°41' W 122°44'4 7.3
2017-Jul-19 08:55N 48°45' W 122°47'7 7.9
2017-Jul-19 08:05N 48°48' W 122°56'1 7.4
2017-Jul-19 07:53N 48°49' W 122°57'3 7.5
2017-Jul-19 07:30N 48°51' W 123°01'4 7.5
2017-Jul-19 06:58N 48°53' W 123°06'5 7.8
2017-Jul-19 06:22N 48°56' W 123°11'3 7.4
2017-Jul-19 06:00N 48°58' W 123°15'4 7.0
2017-Jul-19 05:29N 49°00' W 123°19'3 7.4
2017-Jul-19 05:00N 49°03' W 123°23'4 7.7
2017-Jul-19 04:30N 49°05' W 123°27'11 7.7
2017-Jul-19 03:07N 49°14' W 123°37'1 8.0
2017-Jul-19 03:00N 49°14' W 123°38'4 7.7
2017-Jul-19 02:30N 49°17' W 123°42'4 7.6
2017-Jul-19 01:59N 49°20' W 123°47'4 7.6
2017-Jul-19 01:29N 49°22' W 123°52'4 7.9
2017-Jul-19 01:00N 49°24' W 123°57'4 7.7
2017-Jul-19 00:30N 49°26' W 124°02'13 7.3
2017-Jul-18 22:46N 49°33' W 124°18'2 7.1
2017-Jul-18 22:30N 49°34' W 124°21'3 7.0
2017-Jul-18 22:00N 49°35' W 124°25'3 7.0
2017-Jul-18 21:30N 49°38' W 124°29'4 7.0
2017-Jul-18 21:00N 49°40' W 124°33'1 0.8
2017-Jul-18 19:12N 49°42' W 124°33'0 0.0
2017-Jul-18 19:00N 49°42' W 124°33'0 0.0
2017-Jul-18 16:43N 49°42' W 124°33'0 0.0
2017-Jul-18 16:01N 49°42' W 124°33'0 0.0
2017-Jul-18 16:00N 49°42' W 124°33'0 0.0
2017-Jul-18 15:17N 49°42' W 124°33'0 0.0
2017-Jul-18 14:48N 49°42' W 124°33'0 0.1
2017-Jul-18 13:58N 49°42' W 124°33'1 0.6
2017-Jul-18 13:05N 49°42' W 124°34'0 0.2
2017-Jul-18 12:53N 49°42' W 124°34'3 7.1
2017-Jul-18 12:26N 49°39' W 124°31'2 4.6
2017-Jul-18 12:00N 49°38' W 124°29'34 6.7
2017-Jul-18 06:54N 49°24' W 123°41'4 9.8
2017-Jul-18 06:30N 49°22' W 123°35'5 9.8
2017-Jul-18 06:00N 49°20' W 123°28'510.3
2017-Jul-18 05:30N 49°19' W 123°21'510.1
2017-Jul-18 05:00N 49°19' W 123°13'4 8.7
2017-Jul-18 04:30N 49°18' W 123°07'0 0.7
2017-Jul-18 04:00N 49°18' W 123°06'3 5.8
2017-Jul-18 03:30N 49°19' W 123°10'5 9.2
2017-Jul-18 03:00N 49°17' W 123°17'610.3
2017-Jul-18 02:27N 49°12' W 123°19'510.5
2017-Jul-18 02:00N 49°07' W 123°20'5 9.0
2017-Jul-18 01:25N 49°02' W 123°17'5 9.8
2017-Jul-18 00:57N 48°59' W 123°12'510.3
2017-Jul-18 00:30N 48°56' W 123°07'510.0
2017-Jul-18 00:00N 48°53' W 123°01'12 9.3
2017-Jul-17 22:44N 48°46' W 122°47'2 8.8
2017-Jul-17 22:30N 48°44' W 122°45'5 9.3
2017-Jul-17 22:00N 48°40' W 122°43'5 9.5
2017-Jul-17 21:30N 48°35' W 122°45'5 9.8
2017-Jul-17 21:00N 48°30' W 122°44'710.3
2017-Jul-17 20:18N 48°23' W 122°44'510.3
2017-Jul-17 19:52N 48°19' W 122°46'410.0
2017-Jul-17 19:26N 48°15' W 122°48'17 8.9
2017-Jul-17 17:29N 47°59' W 122°35'5 9.3
2017-Jul-17 17:00N 47°56' W 122°30'5 9.8
2017-Jul-17 16:30N 47°52' W 122°28'510.3
2017-Jul-17 16:00N 47°47' W 122°26'510.0
2017-Jul-17 15:30N 47°42' W 122°27'5 9.1
2017-Jul-17 15:00N 47°37' W 122°25'3 5.3
2017-Jul-17 14:30N 47°35' W 122°22'0 0.2
2017-Jul-17 14:00N 47°35' W 122°22'510.8
2017-Jul-17 13:30N 47°40' W 122°26'2 3.6
2017-Jul-17 13:00N 47°40' W 122°24'1 2.7
2017-Jul-17 12:30N 47°39' W 122°22'0 0.0
2017-Jul-17 12:00N 47°39' W 122°22'0 0.0
2017-Jul-17 11:30N 47°39' W 122°22'0 0.0
2017-Jul-17 11:00N 47°39' W 122°22'0 0.0
2017-Jul-17 10:30N 47°39' W 122°22'0 0.0
2017-Jul-17 10:00N 47°39' W 122°22'0 0.0
2017-Jul-17 09:30N 47°39' W 122°22'0 0.0
2017-Jul-17 09:00N 47°39' W 122°22'0 0.0
2017-Jul-17 08:30N 47°39' W 122°22'0 0.0
2017-Jul-17 08:00N 47°39' W 122°22'0 0.0
2017-Jul-17 07:30N 47°39' W 122°22'0 0.0
2017-Jul-17 07:00N 47°39' W 122°22'0 0.0
2017-Jul-17 06:29N 47°39' W 122°22'0 0.0
2017-Jul-17 06:00N 47°39' W 122°22'0 0.0
2017-Jul-17 05:30N 47°39' W 122°22'0 0.0
2017-Jul-17 05:00N 47°39' W 122°22'0 0.0
2017-Jul-17 04:30N 47°39' W 122°22'0 0.0
2017-Jul-17 04:00N 47°39' W 122°22'0 0.0
2017-Jul-17 03:30N 47°39' W 122°22'0 0.0
2017-Jul-17 03:00N 47°39' W 122°22'0 0.0
2017-Jul-17 02:30N 47°39' W 122°22'0 0.0
2017-Jul-17 02:00N 47°39' W 122°22'0 0.0
2017-Jul-17 01:30N 47°39' W 122°22'0 0.0
2017-Jul-17 01:00N 47°39' W 122°22'0 0.1
2017-Jul-17 00:30N 47°39' W 122°22'0 0.0
2017-Jul-17 00:00N 47°39' W 122°22'0 0.0
2017-Jul-16 23:30N 47°39' W 122°22'0 0.0
2017-Jul-16 23:00N 47°39' W 122°22'0 0.0
2017-Jul-16 22:30N 47°39' W 122°22'0 0.0
2017-Jul-16 22:00N 47°39' W 122°22'0 0.0
2017-Jul-16 21:30N 47°39' W 122°22'0 0.0
2017-Jul-16 21:00N 47°39' W 122°22'0 0.0
2017-Jul-16 20:30N 47°39' W 122°22'0 0.0
2017-Jul-16 20:00N 47°39' W 122°22'0 0.0
2017-Jul-16 19:30N 47°39' W 122°22'0 0.0
2017-Jul-16 19:00N 47°39' W 122°22'0 0.0
2017-Jul-16 18:30N 47°39' W 122°22'0 0.0
2017-Jul-16 18:00N 47°39' W 122°22'0 0.0
2017-Jul-16 17:30N 47°39' W 122°22'0 0.0
2017-Jul-16 17:00N 47°39' W 122°22'0 0.0
2017-Jul-16 16:30N 47°39' W 122°22'0 0.0
2017-Jul-16 16:00N 47°39' W 122°22'0 0.0
2017-Jul-16 15:30N 47°39' W 122°22'0 0.0
2017-Jul-16 15:00N 47°39' W 122°22'0 0.0
2017-Jul-16 14:30N 47°39' W 122°22'0 0.0
2017-Jul-16 14:00N 47°39' W 122°22'0 0.0
2017-Jul-16 13:31N 47°39' W 122°22'0 0.0
2017-Jul-16 13:00N 47°39' W 122°22'0 0.0
2017-Jul-16 12:30N 47°39' W 122°22'0 0.0
2017-Jul-16 12:00N 47°39' W 122°22'0 0.0
2017-Jul-16 11:30N 47°39' W 122°22'0 0.0
2017-Jul-16 11:00N 47°39' W 122°22'0 0.0
2017-Jul-16 10:30N 47°39' W 122°22'0 0.0
2017-Jul-16 10:00N 47°39' W 122°22'0 0.0
2017-Jul-16 09:30N 47°39' W 122°22'0 0.0
2017-Jul-16 09:00N 47°39' W 122°22'0 0.0
2017-Jul-16 08:31N 47°39' W 122°22'0 0.0
2017-Jul-16 08:01N 47°39' W 122°22'0 0.0
2017-Jul-16 07:30N 47°39' W 122°22'0 0.0
2017-Jul-16 07:00N 47°39' W 122°22'0 0.0
2017-Jul-16 06:30N 47°39' W 122°22'0 0.0
2017-Jul-16 06:00N 47°39' W 122°22'0 0.0
2017-Jul-16 05:30N 47°39' W 122°22'1 2.8
2017-Jul-16 05:00N 47°40' W 122°24'0 0.5
2017-Jul-16 04:31N 47°40' W 122°24'2 3.8
2017-Jul-16 04:00N 47°39' W 122°26'4 8.3
2017-Jul-16 03:30N 47°35' W 122°22'0 0.3
2017-Jul-16 03:01N 47°35' W 122°22'2 4.1
2017-Jul-16 02:30N 47°37' W 122°25'3 6.9
2017-Jul-16 02:00N 47°39' W 122°28'4 7.5
2017-Jul-16 01:30N 47°43' W 122°28'4 7.6
2017-Jul-16 01:00N 47°47' W 122°27'4 7.2
2017-Jul-16 00:30N 47°50' W 122°28'4 7.2
2017-Jul-16 00:00N 47°54' W 122°30'3 6.7
2017-Jul-15 23:30N 47°56' W 122°33'19 4.7
2017-Jul-15 19:29N 48°12' W 122°48'9 6.9
2017-Jul-15 18:11N 48°21' W 122°46'3 7.2
2017-Jul-15 17:42N 48°24' W 122°45'2 7.5
2017-Jul-15 17:30N 48°26' W 122°45'4 7.6
2017-Jul-15 17:00N 48°29' W 122°44'3 6.5
2017-Jul-15 16:30N 48°33' W 122°45'3 6.5
2017-Jul-15 16:00N 48°36' W 122°45'3 6.3
2017-Jul-15 15:30N 48°39' W 122°44'3 6.1
2017-Jul-15 15:00N 48°42' W 122°45'8 6.2
2017-Jul-15 13:40N 48°47' W 122°54'2 6.5
2017-Jul-15 13:18N 48°49' W 122°57'2 7.1
2017-Jul-15 13:00N 48°50' W 122°60'4 7.4
2017-Jul-15 12:30N 48°52' W 123°04'4 7.2
2017-Jul-15 12:00N 48°54' W 123°09'4 7.0
2017-Jul-15 11:30N 48°56' W 123°13'4 7.5
2017-Jul-15 10:55N 48°59' W 123°18'3 7.2
2017-Jul-15 10:29N 49°01' W 123°22'4 7.1
2017-Jul-15 09:56N 49°04' W 123°26'5 6.7
2017-Jul-15 09:07N 49°08' W 123°31'1 6.5
2017-Jul-15 08:59N 49°09' W 123°32'3 6.3
2017-Jul-15 08:27N 49°12' W 123°35'3 6.7
2017-Jul-15 07:57N 49°14' W 123°38'4 6.9
2017-Jul-15 07:26N 49°17' W 123°42'29 6.4
2017-Jul-15 02:57N 49°33' W 124°18'3 6.3
2017-Jul-15 02:26N 49°35' W 124°23'3 6.4
2017-Jul-15 02:00N 49°36' W 124°26'3 6.6
2017-Jul-15 01:30N 49°38' W 124°30'3 6.8
2017-Jul-15 01:00N 49°41' W 124°33'1 0.5
2017-Jul-14 23:23N 49°42' W 124°33'0 0.0
2017-Jul-14 18:38N 49°42' W 124°33'0 0.0
2017-Jul-14 18:30N 49°42' W 124°33'49 6.7
2017-Jul-14 11:10N 49°12' W 123°33'5 9.8
2017-Jul-14 10:41N 49°09' W 123°27'2 9.9
2017-Jul-14 10:28N 49°07' W 123°25'6 9.9
2017-Jul-14 09:53N 49°03' W 123°19'7 9.5
2017-Jul-14 09:06N 48°58' W 123°10'1 9.2
2017-Jul-14 09:00N 48°57' W 123°09'5 9.6
2017-Jul-14 08:30N 48°54' W 123°04'6 9.6
2017-Jul-14 07:54N 48°51' W 122°57'7 9.6
2017-Jul-14 07:14N 48°47' W 122°49'2 9.4
2017-Jul-14 07:00N 48°46' W 122°46'4 8.8
2017-Jul-14 06:30N 48°42' W 122°44'4 8.8
2017-Jul-14 06:00N 48°38' W 122°44'5 9.3
2017-Jul-14 05:30N 48°33' W 122°45'510.4
2017-Jul-14 05:00N 48°28' W 122°44'610.2
2017-Jul-14 04:24N 48°22' W 122°45'7 9.2
2017-Jul-14 03:39N 48°15' W 122°48'1 8.5
2017-Jul-14 03:30N 48°14' W 122°48'16 6.4
2017-Jul-14 01:00N 47°60' W 122°36'3 6.5
2017-Jul-14 00:30N 47°57' W 122°33'4 7.5
2017-Jul-14 00:00N 47°55' W 122°29'4 8.3
2017-Jul-13 23:30N 47°51' W 122°27'4 9.0
2017-Jul-13 23:00N 47°46' W 122°26'4 8.9
2017-Jul-13 22:30N 47°42' W 122°27'4 8.4
2017-Jul-13 22:00N 47°38' W 122°25'3 6.2
2017-Jul-13 21:30N 47°36' W 122°22'0 0.4
2017-Jul-13 21:00N 47°35' W 122°22'1 2.9
2017-Jul-13 20:30N 47°34' W 122°21'0 0.0
2017-Jul-13 20:00N 47°34' W 122°21'0 0.0
2017-Jul-13 19:30N 47°34' W 122°21'0 0.0
2017-Jul-13 19:00N 47°34' W 122°21'0 0.0
2017-Jul-13 18:30N 47°34' W 122°21'0 0.0
2017-Jul-13 18:00N 47°34' W 122°21'0 0.0
2017-Jul-13 17:30N 47°34' W 122°21'0 0.0
2017-Jul-13 17:00N 47°34' W 122°21'0 0.0
2017-Jul-13 16:30N 47°34' W 122°21'0 0.0
2017-Jul-13 16:00N 47°34' W 122°21'0 0.0
2017-Jul-13 15:29N 47°34' W 122°21'0 0.0
2017-Jul-13 14:59N 47°34' W 122°21'0 0.0
2017-Jul-13 14:30N 47°34' W 122°21'0 0.0
2017-Jul-13 14:00N 47°34' W 122°21'0 0.0
2017-Jul-13 13:30N 47°34' W 122°21'0 0.0
2017-Jul-13 13:00N 47°34' W 122°21'0 0.0
2017-Jul-13 12:30N 47°34' W 122°21'0 0.0
2017-Jul-13 12:00N 47°34' W 122°21'0 0.0
2017-Jul-13 11:30N 47°34' W 122°21'0 0.0
2017-Jul-13 11:00N 47°34' W 122°21'0 0.0
2017-Jul-13 10:30N 47°34' W 122°21'0 0.0
2017-Jul-13 09:59N 47°34' W 122°21'0 0.0
2017-Jul-13 09:30N 47°34' W 122°21'0 0.0
2017-Jul-13 09:00N 47°34' W 122°21'0 0.0
2017-Jul-13 08:30N 47°34' W 122°21'0 0.0
2017-Jul-13 08:00N 47°34' W 122°21'0 0.0
2017-Jul-13 07:30N 47°34' W 122°21'0 0.0
2017-Jul-13 07:00N 47°34' W 122°21'0 0.0
2017-Jul-13 06:30N 47°34' W 122°21'0 0.0
2017-Jul-13 06:00N 47°34' W 122°21'0 0.0
2017-Jul-13 05:30N 47°34' W 122°21'0 0.0
2017-Jul-13 05:00N 47°34' W 122°21'0 0.0
2017-Jul-13 04:30N 47°34' W 122°21'0 0.0
2017-Jul-13 04:00N 47°34' W 122°21'0 0.0
2017-Jul-13 03:30N 47°34' W 122°21'0 0.0
2017-Jul-13 03:00N 47°34' W 122°21'0 0.0
2017-Jul-13 02:30N 47°34' W 122°21'0 0.0
2017-Jul-13 02:00N 47°34' W 122°21'0 0.0
2017-Jul-13 01:30N 47°34' W 122°21'2 4.3
2017-Jul-13 01:00N 47°36' W 122°23'4 7.1
2017-Jul-13 00:30N 47°38' W 122°27'4 7.3
2017-Jul-13 00:00N 47°42' W 122°28'4 7.8
2017-Jul-12 23:30N 47°46' W 122°27'4 7.8
2017-Jul-12 23:00N 47°49' W 122°28'4 7.8
2017-Jul-12 22:30N 47°53' W 122°29'4 7.8
2017-Jul-12 22:00N 47°56' W 122°32'19 5.7
2017-Jul-12 18:41N 48°12' W 122°49'4 5.9
2017-Jul-12 18:05N 48°16' W 122°48'10 8.5
2017-Jul-12 16:57N 48°25' W 122°45'4 9.7
2017-Jul-12 16:30N 48°29' W 122°44'5 9.4
2017-Jul-12 16:00N 48°34' W 122°45'4 8.5
2017-Jul-12 15:30N 48°38' W 122°44'4 7.5
2017-Jul-12 15:00N 48°42' W 122°44'10 7.8
2017-Jul-12 13:45N 48°48' W 122°55'2 7.9
2017-Jul-12 13:29N 48°50' W 122°58'5 7.8
2017-Jul-12 12:54N 48°52' W 123°04'3 7.8
2017-Jul-12 12:30N 48°54' W 123°08'4 7.2
2017-Jul-12 11:56N 48°57' W 123°12'3 7.1
2017-Jul-12 11:28N 48°59' W 123°16'3 7.1
2017-Jul-12 11:00N 49°01' W 123°20'4 6.9
2017-Jul-12 10:23N 49°04' W 123°25'4 7.2
2017-Jul-12 09:52N 49°07' W 123°28'3 7.4
2017-Jul-12 09:28N 49°09' W 123°31'40 7.1
2017-Jul-12 03:50N 49°33' W 124°20'3 6.9
2017-Jul-12 03:21N 49°35' W 124°24'2 6.6
2017-Jul-12 02:59N 49°37' W 124°27'4 6.9
2017-Jul-12 02:28N 49°39' W 124°31'3 0.7
2017-Jul-11 22:10N 49°42' W 124°33'0 0.0
2017-Jul-11 21:42N 49°42' W 124°33'0 0.0
2017-Jul-11 21:23N 49°42' W 124°33'0 0.0
2017-Jul-11 18:42N 49°42' W 124°33'0 0.0
2017-Jul-11 17:41N 49°42' W 124°33'0 0.0
2017-Jul-11 17:28N 49°42' W 124°33'1 0.2
2017-Jul-11 12:45N 49°42' W 124°34'2 3.8
2017-Jul-11 12:21N 49°41' W 124°33'2 5.6
2017-Jul-11 11:56N 49°39' W 124°31'2 4.8
2017-Jul-11 11:29N 49°37' W 124°29'51 8.6
2017-Jul-11 05:32N 49°07' W 123°25'12 8.8
2017-Jul-11 04:08N 48°59' W 123°12'1 9.2
2017-Jul-11 03:59N 48°58' W 123°10'4 8.8
2017-Jul-11 03:30N 48°55' W 123°06'5 9.4
2017-Jul-11 02:56N 48°50' W 123°01'4 8.7
2017-Jul-11 02:30N 48°47' W 123°02'510.7
2017-Jul-11 02:00N 48°44' W 123°08'5 9.9
2017-Jul-11 01:30N 48°40' W 123°14'611.8
2017-Jul-11 01:00N 48°35' W 123°13'612.0
2017-Jul-11 00:30N 48°29' W 123°11'  
Track history (hours):
 
Tides and Currents Weather Stations Pressure Air Temp Water Temp Dewpoint Dewpoint Depression Visibility Wind Speed Wind Dir Waves Ship Positions

Ocean Navigator

Owner: OCEAN NAVIGATOR INC, SEATTLE, WA. More information available from US FCC via Universal Licensing System and Coast Guard Vessel Documentation Center.

Last reported at 2017-Jul-21 00:30 UTC. Time now 2017-Jul-21 00:55 UTC.
Position N 49°42' W 124°33'.

Type: Towing. MMSI: 366358000.

Date/timePositionNaut miles runAvg speedWind from/ knotsBaromVisibWave heightAir tempDewpointWater temp
2017-Jul-21 00:30N 49°42' W 124°33'1 0.4
2017-Jul-20 22:25N 49°42' W 124°34'1 1.5
2017-Jul-20 21:59N 49°41' W 124°35'2 4.3
2017-Jul-20 21:30N 49°41' W 124°38'2 3.2
2017-Jul-20 21:00N 49°43' W 124°39'3 4.7
2017-Jul-20 20:28N 49°42' W 124°36'3 5.4
2017-Jul-20 19:59N 49°40' W 124°33'3 4.7
2017-Jul-20 19:16N 49°38' W 124°29'2 4.4
2017-Jul-20 18:50N 49°36' W 124°27'35 6.7
2017-Jul-20 13:41N 49°22' W 123°38'2 7.9
2017-Jul-20 13:28N 49°22' W 123°35'4 8.5
2017-Jul-20 13:00N 49°20' W 123°30'4 9.1
2017-Jul-20 12:30N 49°19' W 123°23'5 9.6
2017-Jul-20 12:00N 49°19' W 123°15'5 9.7
2017-Jul-20 11:30N 49°19' W 123°08'1 2.2
2017-Jul-20 11:01N 49°18' W 123°06'2 3.3
2017-Jul-20 10:30N 49°19' W 123°09'3 6.5
2017-Jul-20 10:00N 49°19' W 123°14'4 7.3
2017-Jul-20 09:30N 49°16' W 123°18'5 9.1
2017-Jul-20 09:00N 49°12' W 123°19'6 9.6
2017-Jul-20 08:24N 49°06' W 123°20'1010.1
2017-Jul-20 07:21N 48°58' W 123°10'410.1
2017-Jul-20 07:00N 48°56' W 123°06'1510.0
2017-Jul-20 05:31N 48°46' W 122°49'0 9.9
2017-Jul-20 05:29N 48°46' W 122°48'4 9.1
2017-Jul-20 05:00N 48°43' W 122°44'4 8.4
2017-Jul-20 04:30N 48°39' W 122°43'4 8.3
2017-Jul-20 04:00N 48°35' W 122°45'4 8.8
2017-Jul-20 03:30N 48°30' W 122°44'4 8.5
2017-Jul-20 03:00N 48°26' W 122°44'5 9.0
2017-Jul-20 02:28N 48°21' W 122°45'4 8.7
2017-Jul-20 01:57N 48°17' W 122°47'4 8.5
2017-Jul-20 01:29N 48°13' W 122°48'910.3
2017-Jul-20 00:40N 48°07' W 122°39'8 9.7
2017-Jul-19 23:51N 47°60' W 122°35'3 9.9
2017-Jul-19 23:30N 47°57' W 122°32'5 9.3
2017-Jul-19 23:00N 47°53' W 122°28'5 9.3
2017-Jul-19 22:30N 47°49' W 122°26'4 8.8
2017-Jul-19 22:00N 47°44' W 122°26'4 8.9
2017-Jul-19 21:30N 47°40' W 122°27'4 8.8
2017-Jul-19 21:00N 47°36' W 122°23'1 2.3
2017-Jul-19 20:30N 47°35' W 122°22'1 1.3
2017-Jul-19 20:00N 47°36' W 122°23'3 5.4
2017-Jul-19 19:31N 47°38' W 122°26'3 6.6
2017-Jul-19 19:00N 47°40' W 122°28'4 7.6
2017-Jul-19 18:30N 47°44' W 122°27'4 7.7
2017-Jul-19 18:00N 47°48' W 122°27'4 7.3
2017-Jul-19 17:30N 47°51' W 122°29'4 7.2
2017-Jul-19 17:00N 47°55' W 122°30'5 7.1
2017-Jul-19 16:18N 47°58' W 122°36'19 5.0
2017-Jul-19 12:33N 48°15' W 122°48'3 7.9
2017-Jul-19 12:08N 48°18' W 122°47'1 8.0
2017-Jul-19 11:58N 48°20' W 122°47'5 8.4
2017-Jul-19 11:23N 48°24' W 122°45'4 9.4
2017-Jul-19 11:00N 48°28' W 122°45'510.0
2017-Jul-19 10:30N 48°33' W 122°45'4 8.7
2017-Jul-19 10:00N 48°37' W 122°45'4 7.8
2017-Jul-19 09:30N 48°41' W 122°44'4 7.3
2017-Jul-19 08:55N 48°45' W 122°47'7 7.9
2017-Jul-19 08:05N 48°48' W 122°56'1 7.4
2017-Jul-19 07:53N 48°49' W 122°57'3 7.5
2017-Jul-19 07:30N 48°51' W 123°01'4 7.5
2017-Jul-19 06:58N 48°53' W 123°06'5 7.8
2017-Jul-19 06:22N 48°56' W 123°11'3 7.4
2017-Jul-19 06:00N 48°58' W 123°15'4 7.0
2017-Jul-19 05:29N 49°00' W 123°19'3 7.4
2017-Jul-19 05:00N 49°03' W 123°23'4 7.7
2017-Jul-19 04:30N 49°05' W 123°27'11 7.7
2017-Jul-19 03:07N 49°14' W 123°37'1 8.0
2017-Jul-19 03:00N 49°14' W 123°38'4 7.7
2017-Jul-19 02:30N 49°17' W 123°42'4 7.6
2017-Jul-19 01:59N 49°20' W 123°47'4 7.6
2017-Jul-19 01:29N 49°22' W 123°52'4 7.9
2017-Jul-19 01:00N 49°24' W 123°57'4 7.7
2017-Jul-19 00:30N 49°26' W 124°02'13 7.3
2017-Jul-18 22:46N 49°33' W 124°18'2 7.1
2017-Jul-18 22:30N 49°34' W 124°21'3 7.0
2017-Jul-18 22:00N 49°35' W 124°25'3 7.0
2017-Jul-18 21:30N 49°38' W 124°29'4 7.0
2017-Jul-18 21:00N 49°40' W 124°33'1 0.8
2017-Jul-18 19:12N 49°42' W 124°33'0 0.0
2017-Jul-18 19:00N 49°42' W 124°33'0 0.0
2017-Jul-18 16:43N 49°42' W 124°33'0 0.0
2017-Jul-18 16:01N 49°42' W 124°33'0 0.0
2017-Jul-18 16:00N 49°42' W 124°33'0 0.0
2017-Jul-18 15:17N 49°42' W 124°33'0 0.0
2017-Jul-18 14:48N 49°42' W 124°33'0 0.1
2017-Jul-18 13:58N 49°42' W 124°33'1 0.6
2017-Jul-18 13:05N 49°42' W 124°34'0 0.2
2017-Jul-18 12:53N 49°42' W 124°34'3 7.1
2017-Jul-18 12:26N 49°39' W 124°31'2 4.6
2017-Jul-18 12:00N 49°38' W 124°29'34 6.7
2017-Jul-18 06:54N 49°24' W 123°41'4 9.8
2017-Jul-18 06:30N 49°22' W 123°35'5 9.8
2017-Jul-18 06:00N 49°20' W 123°28'510.3
2017-Jul-18 05:30N 49°19' W 123°21'510.1
2017-Jul-18 05:00N 49°19' W 123°13'4 8.7
2017-Jul-18 04:30N 49°18' W 123°07'0 0.7
2017-Jul-18 04:00N 49°18' W 123°06'3 5.8
2017-Jul-18 03:30N 49°19' W 123°10'5 9.2
2017-Jul-18 03:00N 49°17' W 123°17'610.3
2017-Jul-18 02:27N 49°12' W 123°19'510.5
2017-Jul-18 02:00N 49°07' W 123°20'5 9.0
2017-Jul-18 01:25N 49°02' W 123°17'5 9.8
2017-Jul-18 00:57N 48°59' W 123°12'510.3
2017-Jul-18 00:30N 48°56' W 123°07'510.0
2017-Jul-18 00:00N 48°53' W 123°01'12 9.3
2017-Jul-17 22:44N 48°46' W 122°47'2 8.8
2017-Jul-17 22:30N 48°44' W 122°45'5 9.3
2017-Jul-17 22:00N 48°40' W 122°43'5 9.5
2017-Jul-17 21:30N 48°35' W 122°45'5 9.8
2017-Jul-17 21:00N 48°30' W 122°44'710.3
2017-Jul-17 20:18N 48°23' W 122°44'510.3
2017-Jul-17 19:52N 48°19' W 122°46'410.0
2017-Jul-17 19:26N 48°15' W 122°48'17 8.9
2017-Jul-17 17:29N 47°59' W 122°35'5 9.3
2017-Jul-17 17:00N 47°56' W 122°30'5 9.8
2017-Jul-17 16:30N 47°52' W 122°28'510.3
2017-Jul-17 16:00N 47°47' W 122°26'510.0
2017-Jul-17 15:30N 47°42' W 122°27'5 9.1
2017-Jul-17 15:00N 47°37' W 122°25'3 5.3
2017-Jul-17 14:30N 47°35' W 122°22'0 0.2
2017-Jul-17 14:00N 47°35' W 122°22'510.8
2017-Jul-17 13:30N 47°40' W 122°26'2 3.6
2017-Jul-17 13:00N 47°40' W 122°24'1 2.7
2017-Jul-17 12:30N 47°39' W 122°22'0 0.0
2017-Jul-17 12:00N 47°39' W 122°22'0 0.0
2017-Jul-17 11:30N 47°39' W 122°22'0 0.0
2017-Jul-17 11:00N 47°39' W 122°22'0 0.0
2017-Jul-17 10:30N 47°39' W 122°22'0 0.0
2017-Jul-17 10:00N 47°39' W 122°22'0 0.0
2017-Jul-17 09:30N 47°39' W 122°22'0 0.0
2017-Jul-17 09:00N 47°39' W 122°22'0 0.0
2017-Jul-17 08:30N 47°39' W 122°22'0 0.0
2017-Jul-17 08:00N 47°39' W 122°22'0 0.0
2017-Jul-17 07:30N 47°39' W 122°22'0 0.0
2017-Jul-17 07:00N 47°39' W 122°22'0 0.0
2017-Jul-17 06:29N 47°39' W 122°22'0 0.0
2017-Jul-17 06:00N 47°39' W 122°22'0 0.0
2017-Jul-17 05:30N 47°39' W 122°22'0 0.0
2017-Jul-17 05:00N 47°39' W 122°22'0 0.0
2017-Jul-17 04:30N 47°39' W 122°22'0 0.0
2017-Jul-17 04:00N 47°39' W 122°22'0 0.0
2017-Jul-17 03:30N 47°39' W 122°22'0 0.0
2017-Jul-17 03:00N 47°39' W 122°22'0 0.0
2017-Jul-17 02:30N 47°39' W 122°22'0 0.0
2017-Jul-17 02:00N 47°39' W 122°22'0 0.0
2017-Jul-17 01:30N 47°39' W 122°22'0 0.0
2017-Jul-17 01:00N 47°39' W 122°22'0 0.1
2017-Jul-17 00:30N 47°39' W 122°22'0 0.0
2017-Jul-17 00:00N 47°39' W 122°22'0 0.0
2017-Jul-16 23:30N 47°39' W 122°22'0 0.0
2017-Jul-16 23:00N 47°39' W 122°22'0 0.0
2017-Jul-16 22:30N 47°39' W 122°22'0 0.0
2017-Jul-16 22:00N 47°39' W 122°22'0 0.0
2017-Jul-16 21:30N 47°39' W 122°22'0 0.0
2017-Jul-16 21:00N 47°39' W 122°22'0 0.0
2017-Jul-16 20:30N 47°39' W 122°22'0 0.0
2017-Jul-16 20:00N 47°39' W 122°22'0 0.0
2017-Jul-16 19:30N 47°39' W 122°22'0 0.0
2017-Jul-16 19:00N 47°39' W 122°22'0 0.0
2017-Jul-16 18:30N 47°39' W 122°22'0 0.0
2017-Jul-16 18:00N 47°39' W 122°22'0 0.0
2017-Jul-16 17:30N 47°39' W 122°22'0 0.0
2017-Jul-16 17:00N 47°39' W 122°22'0 0.0
2017-Jul-16 16:30N 47°39' W 122°22'0 0.0
2017-Jul-16 16:00N 47°39' W 122°22'0 0.0
2017-Jul-16 15:30N 47°39' W 122°22'0 0.0
2017-Jul-16 15:00N 47°39' W 122°22'0 0.0
2017-Jul-16 14:30N 47°39' W 122°22'0 0.0
2017-Jul-16 14:00N 47°39' W 122°22'0 0.0
2017-Jul-16 13:31N 47°39' W 122°22'0 0.0
2017-Jul-16 13:00N 47°39' W 122°22'0 0.0
2017-Jul-16 12:30N 47°39' W 122°22'0 0.0
2017-Jul-16 12:00N 47°39' W 122°22'0 0.0
2017-Jul-16 11:30N 47°39' W 122°22'0 0.0
2017-Jul-16 11:00N 47°39' W 122°22'0 0.0
2017-Jul-16 10:30N 47°39' W 122°22'0 0.0
2017-Jul-16 10:00N 47°39' W 122°22'0 0.0
2017-Jul-16 09:30N 47°39' W 122°22'0 0.0
2017-Jul-16 09:00N 47°39' W 122°22'0 0.0
2017-Jul-16 08:31N 47°39' W 122°22'0 0.0
2017-Jul-16 08:01N 47°39' W 122°22'0 0.0
2017-Jul-16 07:30N 47°39' W 122°22'0 0.0
2017-Jul-16 07:00N 47°39' W 122°22'0 0.0
2017-Jul-16 06:30N 47°39' W 122°22'0 0.0
2017-Jul-16 06:00N 47°39' W 122°22'0 0.0
2017-Jul-16 05:30N 47°39' W 122°22'1 2.8
2017-Jul-16 05:00N 47°40' W 122°24'0 0.5
2017-Jul-16 04:31N 47°40' W 122°24'2 3.8
2017-Jul-16 04:00N 47°39' W 122°26'4 8.3
2017-Jul-16 03:30N 47°35' W 122°22'0 0.3
2017-Jul-16 03:01N 47°35' W 122°22'2 4.1
2017-Jul-16 02:30N 47°37' W 122°25'3 6.9
2017-Jul-16 02:00N 47°39' W 122°28'4 7.5
2017-Jul-16 01:30N 47°43' W 122°28'4 7.6
2017-Jul-16 01:00N 47°47' W 122°27'4 7.2
2017-Jul-16 00:30N 47°50' W 122°28'4 7.2
2017-Jul-16 00:00N 47°54' W 122°30'3 6.7
2017-Jul-15 23:30N 47°56' W 122°33'19 4.7
2017-Jul-15 19:29N 48°12' W 122°48'9 6.9
2017-Jul-15 18:11N 48°21' W 122°46'3 7.2
2017-Jul-15 17:42N 48°24' W 122°45'2 7.5
2017-Jul-15 17:30N 48°26' W 122°45'4 7.6
2017-Jul-15 17:00N 48°29' W 122°44'3 6.5
2017-Jul-15 16:30N 48°33' W 122°45'3 6.5
2017-Jul-15 16:00N 48°36' W 122°45'3 6.3
2017-Jul-15 15:30N 48°39' W 122°44'3 6.1
2017-Jul-15 15:00N 48°42' W 122°45'8 6.2
2017-Jul-15 13:40N 48°47' W 122°54'2 6.5
2017-Jul-15 13:18N 48°49' W 122°57'2 7.1
2017-Jul-15 13:00N 48°50' W 122°60'4 7.4
2017-Jul-15 12:30N 48°52' W 123°04'4 7.2
2017-Jul-15 12:00N 48°54' W 123°09'4 7.0
2017-Jul-15 11:30N 48°56' W 123°13'4 7.5
2017-Jul-15 10:55N 48°59' W 123°18'3 7.2
2017-Jul-15 10:29N 49°01' W 123°22'4 7.1
2017-Jul-15 09:56N 49°04' W 123°26'5 6.7
2017-Jul-15 09:07N 49°08' W 123°31'1 6.5
2017-Jul-15 08:59N 49°09' W 123°32'3 6.3
2017-Jul-15 08:27N 49°12' W 123°35'3 6.7
2017-Jul-15 07:57N 49°14' W 123°38'4 6.9
2017-Jul-15 07:26N 49°17' W 123°42'29 6.4
2017-Jul-15 02:57N 49°33' W 124°18'3 6.3
2017-Jul-15 02:26N 49°35' W 124°23'3 6.4
2017-Jul-15 02:00N 49°36' W 124°26'3 6.6
2017-Jul-15 01:30N 49°38' W 124°30'3 6.8
2017-Jul-15 01:00N 49°41' W 124°33'1 0.5
2017-Jul-14 23:23N 49°42' W 124°33'0 0.0
2017-Jul-14 18:38N 49°42' W 124°33'0 0.0
2017-Jul-14 18:30N 49°42' W 124°33'49 6.7
2017-Jul-14 11:10N 49°12' W 123°33'5 9.8
2017-Jul-14 10:41N 49°09' W 123°27'2 9.9
2017-Jul-14 10:28N 49°07' W 123°25'6 9.9
2017-Jul-14 09:53N 49°03' W 123°19'7 9.5
2017-Jul-14 09:06N 48°58' W 123°10'1 9.2
2017-Jul-14 09:00N 48°57' W 123°09'5 9.6
2017-Jul-14 08:30N 48°54' W 123°04'6 9.6
2017-Jul-14 07:54N 48°51' W 122°57'7 9.6
2017-Jul-14 07:14N 48°47' W 122°49'2 9.4
2017-Jul-14 07:00N 48°46' W 122°46'4 8.8
2017-Jul-14 06:30N 48°42' W 122°44'4 8.8
2017-Jul-14 06:00N 48°38' W 122°44'5 9.3
2017-Jul-14 05:30N 48°33' W 122°45'510.4
2017-Jul-14 05:00N 48°28' W 122°44'610.2
2017-Jul-14 04:24N 48°22' W 122°45'7 9.2
2017-Jul-14 03:39N 48°15' W 122°48'1 8.5
2017-Jul-14 03:30N 48°14' W 122°48'16 6.4
2017-Jul-14 01:00N 47°60' W 122°36'3 6.5
2017-Jul-14 00:30N 47°57' W 122°33'4 7.5
2017-Jul-14 00:00N 47°55' W 122°29'4 8.3
2017-Jul-13 23:30N 47°51' W 122°27'4 9.0
2017-Jul-13 23:00N 47°46' W 122°26'4 8.9
2017-Jul-13 22:30N 47°42' W 122°27'4 8.4
2017-Jul-13 22:00N 47°38' W 122°25'3 6.2
2017-Jul-13 21:30N 47°36' W 122°22'0 0.4
2017-Jul-13 21:00N 47°35' W 122°22'1 2.9
2017-Jul-13 20:30N 47°34' W 122°21'0 0.0
2017-Jul-13 20:00N 47°34' W 122°21'0 0.0
2017-Jul-13 19:30N 47°34' W 122°21'0 0.0
2017-Jul-13 19:00N 47°34' W 122°21'0 0.0
2017-Jul-13 18:30N 47°34' W 122°21'0 0.0
2017-Jul-13 18:00N 47°34' W 122°21'0 0.0
2017-Jul-13 17:30N 47°34' W 122°21'0 0.0
2017-Jul-13 17:00N 47°34' W 122°21'0 0.0
2017-Jul-13 16:30N 47°34' W 122°21'0 0.0
2017-Jul-13 16:00N 47°34' W 122°21'0 0.0
2017-Jul-13 15:29N 47°34' W 122°21'0 0.0
2017-Jul-13 14:59N 47°34' W 122°21'0 0.0
2017-Jul-13 14:30N 47°34' W 122°21'0 0.0
2017-Jul-13 14:00N 47°34' W 122°21'0 0.0
2017-Jul-13 13:30N 47°34' W 122°21'0 0.0
2017-Jul-13 13:00N 47°34' W 122°21'0 0.0
2017-Jul-13 12:30N 47°34' W 122°21'0 0.0
2017-Jul-13 12:00N 47°34' W 122°21'0 0.0
2017-Jul-13 11:30N 47°34' W 122°21'0 0.0
2017-Jul-13 11:00N 47°34' W 122°21'0 0.0
2017-Jul-13 10:30N 47°34' W 122°21'0 0.0
2017-Jul-13 09:59N 47°34' W 122°21'0 0.0
2017-Jul-13 09:30N 47°34' W 122°21'0 0.0
2017-Jul-13 09:00N 47°34' W 122°21'0 0.0
2017-Jul-13 08:30N 47°34' W 122°21'0 0.0
2017-Jul-13 08:00N 47°34' W 122°21'0 0.0
2017-Jul-13 07:30N 47°34' W 122°21'0 0.0
2017-Jul-13 07:00N 47°34' W 122°21'0 0.0
2017-Jul-13 06:30N 47°34' W 122°21'0 0.0
2017-Jul-13 06:00N 47°34' W 122°21'0 0.0
2017-Jul-13 05:30N 47°34' W 122°21'0 0.0
2017-Jul-13 05:00N 47°34' W 122°21'0 0.0
2017-Jul-13 04:30N 47°34' W 122°21'0 0.0
2017-Jul-13 04:00N 47°34' W 122°21'0 0.0
2017-Jul-13 03:30N 47°34' W 122°21'0 0.0
2017-Jul-13 03:00N 47°34' W 122°21'0 0.0
2017-Jul-13 02:30N 47°34' W 122°21'0 0.0
2017-Jul-13 02:00N 47°34' W 122°21'0 0.0
2017-Jul-13 01:30N 47°34' W 122°21'2 4.3
2017-Jul-13 01:00N 47°36' W 122°23'4 7.1
2017-Jul-13 00:30N 47°38' W 122°27'4 7.3
2017-Jul-13 00:00N 47°42' W 122°28'4 7.8
2017-Jul-12 23:30N 47°46' W 122°27'4 7.8
2017-Jul-12 23:00N 47°49' W 122°28'4 7.8
2017-Jul-12 22:30N 47°53' W 122°29'4 7.8
2017-Jul-12 22:00N 47°56' W 122°32'19 5.7
2017-Jul-12 18:41N 48°12' W 122°49'4 5.9
2017-Jul-12 18:05N 48°16' W 122°48'10 8.5
2017-Jul-12 16:57N 48°25' W 122°45'4 9.7
2017-Jul-12 16:30N 48°29' W 122°44'5 9.4
2017-Jul-12 16:00N 48°34' W 122°45'4 8.5
2017-Jul-12 15:30N 48°38' W 122°44'4 7.5
2017-Jul-12 15:00N 48°42' W 122°44'10 7.8
2017-Jul-12 13:45N 48°48' W 122°55'2 7.9
2017-Jul-12 13:29N 48°50' W 122°58'5 7.8
2017-Jul-12 12:54N 48°52' W 123°04'3 7.8
2017-Jul-12 12:30N 48°54' W 123°08'4 7.2
2017-Jul-12 11:56N 48°57' W 123°12'3 7.1
2017-Jul-12 11:28N 48°59' W 123°16'3 7.1
2017-Jul-12 11:00N 49°01' W 123°20'4 6.9
2017-Jul-12 10:23N 49°04' W 123°25'4 7.2
2017-Jul-12 09:52N 49°07' W 123°28'3 7.4
2017-Jul-12 09:28N 49°09' W 123°31'40 7.1
2017-Jul-12 03:50N 49°33' W 124°20'3 6.9
2017-Jul-12 03:21N 49°35' W 124°24'2 6.6
2017-Jul-12 02:59N 49°37' W 124°27'4 6.9
2017-Jul-12 02:28N 49°39' W 124°31'3 0.7
2017-Jul-11 22:10N 49°42' W 124°33'0 0.0
2017-Jul-11 21:42N 49°42' W 124°33'0 0.0
2017-Jul-11 21:23N 49°42' W 124°33'0 0.0
2017-Jul-11 18:42N 49°42' W 124°33'0 0.0
2017-Jul-11 17:41N 49°42' W 124°33'0 0.0
2017-Jul-11 17:28N 49°42' W 124°33'1 0.2
2017-Jul-11 12:45N 49°42' W 124°34'2 3.8
2017-Jul-11 12:21N 49°41' W 124°33'2 5.6
2017-Jul-11 11:56N 49°39' W 124°31'2 4.8
2017-Jul-11 11:29N 49°37' W 124°29'51 8.6
2017-Jul-11 05:32N 49°07' W 123°25'12 8.8
2017-Jul-11 04:08N 48°59' W 123°12'1 9.2
2017-Jul-11 03:59N 48°58' W 123°10'4 8.8
2017-Jul-11 03:30N 48°55' W 123°06'5 9.4
2017-Jul-11 02:56N 48°50' W 123°01'4 8.7
2017-Jul-11 02:30N 48°47' W 123°02'510.7
2017-Jul-11 02:00N 48°44' W 123°08'5 9.9
2017-Jul-11 01:30N 48°40' W 123°14'611.8
2017-Jul-11 01:00N 48°35' W 123°13'612.0
2017-Jul-11 00:30N 48°29' W 123°11'  

Dump ship's entire track history